Time;durP1;ratioP1;P1;durP2;ratioP2;P2;SDS_P1;SDS_P2;PMS_P1;PMS_P2;Temp;Humidity;BMP_temperature;BMP_pressure;BME280_temperature;BME280_humidity;BME280_pressure;Samples;Min_cycle;Max_cycle;Signal;HPM_P1;HPM_P2
2021/06/14 00:03:49;;;;;;;4.47;1.77;;;27.50;99.90;;;;;;20839414;22;20242;-72
2021/06/14 00:13:53;;;;;;;1.75;1.35;;;27.40;99.90;;;;;;20824677;28;20706;-73
2021/06/14 00:23:58;;;;;;;2.83;1.85;;;27.00;99.90;;;;;;20864691;28;20252;-73
2021/06/14 00:34:01;;;;;;;2.90;2.53;;;26.70;99.90;;;;;;20905179;28;20232;-74
2021/06/14 00:44:08;;;;;;;3.58;1.88;;;26.60;99.90;;;;;;20843685;28;20260;-73
2021/06/14 00:54:12;;;;;;;1.73;1.38;;;26.50;99.90;;;;;;20803682;28;20206;-74
2021/06/14 01:04:17;;;;;;;2.63;1.75;;;27.20;99.90;;;;;;20821506;28;20270;-75
2021/06/14 01:14:29;;;;;;;4.03;1.85;;;27.90;99.90;;;;;;20820897;28;20252;-74
2021/06/14 01:24:55;;;;;;;2.38;1.55;;;26.60;99.90;;;;;;20844799;28;20571;-75
2021/06/14 01:35:01;;;;;;;2.53;1.13;;;26.00;99.90;;;;;;20817492;28;20190;-75
2021/06/14 01:45:07;;;;;;;2.42;1.58;;;25.90;99.90;;;;;;20817859;28;20316;-76
2021/06/14 01:55:16;;;;;;;2.08;1.58;;;25.40;99.90;;;;;;20817164;28;20679;-74
2021/06/14 02:05:22;;;;;;;1.75;1.30;;;25.00;99.90;;;;;;20817154;28;20297;-75
2021/06/14 02:15:27;;;;;;;1.63;1.52;;;25.20;99.90;;;;;;20816545;28;20217;-74
2021/06/14 02:25:31;;;;;;;3.65;2.15;;;25.10;99.90;;;;;;20870474;28;20253;-74
2021/06/14 02:35:36;;;;;;;1.90;1.27;;;24.80;99.90;;;;;;20898282;28;20655;-75
2021/06/14 02:45:41;;;;;;;4.50;1.90;;;24.80;99.90;;;;;;20900278;28;20637;-76
2021/06/14 02:55:57;;;;;;;2.55;1.58;;;24.90;99.90;;;;;;20912985;28;20202;-77
2021/06/14 03:06:02;;;;;;;2.95;1.75;;;25.00;99.90;;;;;;20912704;28;20240;-73
2021/06/14 03:16:07;;;;;;;3.05;1.67;;;24.80;99.90;;;;;;20909803;28;20545;-72
2021/06/14 03:26:14;;;;;;;2.87;1.93;;;24.70;99.90;;;;;;20851594;28;20261;-74
2021/06/14 03:36:21;;;;;;;2.70;1.83;;;24.40;99.90;;;;;;20827456;28;20224;-75
2021/06/14 03:46:24;;;;;;;3.73;2.10;;;23.80;99.90;;;;;;20809046;28;20219;-74
2021/06/14 03:56:32;;;;;;;2.60;1.70;;;24.00;99.90;;;;;;20824266;28;20201;-75
2021/06/14 04:06:36;;;;;;;2.60;2.30;;;24.00;99.90;;;;;;20841075;22;20758;-66
2021/06/14 04:16:41;;;;;;;2.97;2.10;;;24.60;99.90;;;;;;20826237;28;20194;-68
2021/06/14 04:26:45;;;;;;;2.55;2.05;;;25.10;99.90;;;;;;20825575;28;20275;-67
2021/06/14 04:36:50;;;;;;;1.95;1.73;;;24.90;99.90;;;;;;20805724;28;20231;-68
2021/06/14 04:46:54;;;;;;;3.73;2.17;;;24.70;99.90;;;;;;20821291;28;20218;-67
2021/06/14 04:56:59;;;;;;;6.15;2.28;;;24.60;99.90;;;;;;20803974;28;20289;-66
2021/06/14 05:07:02;;;;;;;3.25;2.95;;;24.80;99.90;;;;;;20820539;28;20237;-69
2021/06/14 05:17:08;;;;;;;2.72;1.80;;;24.90;99.90;;;;;;20820961;28;20206;-67
2021/06/14 05:27:12;;;;;;;2.47;1.58;;;25.00;99.90;;;;;;20820050;28;20229;-65
2021/06/14 05:37:18;;;;;;;12.25;2.40;;;25.20;99.90;;;;;;20805990;28;20198;-66
2021/06/14 05:47:21;;;;;;;5.25;3.00;;;25.80;99.90;;;;;;20824558;28;20218;-68
2021/06/14 05:57:26;;;;;;;8.90;3.38;;;26.00;99.90;;;;;;20816628;28;20208;-68
2021/06/14 06:07:30;;;;;;;2.30;2.10;;;26.50;99.90;;;;;;20818230;28;20229;-66
2021/06/14 06:17:35;;;;;;;3.25;2.50;;;26.60;99.90;;;;;;20813956;28;20553;-70
2021/06/14 06:27:39;;;;;;;3.25;2.45;;;27.00;99.90;;;;;;20831602;28;20236;-69
2021/06/14 06:37:45;;;;;;;3.63;2.80;;;26.40;99.90;;;;;;20832226;28;20225;-69
2021/06/14 06:47:49;;;;;;;4.28;2.75;;;26.30;99.90;;;;;;20830286;28;20226;-67
2021/06/14 06:57:54;;;;;;;4.97;2.47;;;26.90;99.90;;;;;;20830889;28;20285;-67
2021/06/14 07:07:58;;;;;;;3.03;2.60;;;27.00;99.90;;;;;;20827402;28;20230;-67
2021/06/14 07:18:04;;;;;;;5.22;3.70;;;27.20;99.90;;;;;;20828040;28;20282;-67
2021/06/14 07:28:10;;;;;;;7.72;2.47;;;27.30;99.90;;;;;;20824326;28;20229;-69
2021/06/14 07:38:17;;;;;;;5.10;2.38;;;26.80;99.90;;;;;;20825861;28;20614;-68
2021/06/14 07:48:22;;;;;;;5.68;4.00;;;27.70;99.90;;;;;;20826056;28;20226;-67
2021/06/14 07:58:27;;;;;;;3.20;2.33;;;27.70;99.90;;;;;;20827689;28;20214;-67
2021/06/14 08:08:31;;;;;;;4.07;2.88;;;27.80;99.90;;;;;;20743682;28;20924;-64
2021/06/14 08:18:41;;;;;;;6.18;2.33;;;27.80;99.90;;;;;;20804828;28;20198;-64
2021/06/14 08:28:45;;;;;;;7.50;3.60;;;27.70;99.90;;;;;;20822327;28;20228;-64
2021/06/14 08:38:51;;;;;;;5.03;3.40;;;27.70;99.90;;;;;;20823132;28;20289;-66
2021/06/14 08:48:55;;;;;;;7.47;3.45;;;27.70;99.90;;;;;;20804105;28;20278;-63
2021/06/14 08:59:00;;;;;;;3.45;2.67;;;27.80;99.90;;;;;;20821084;28;20252;-69
2021/06/14 09:09:07;;;;;;;4.90;2.92;;;27.90;99.90;;;;;;20818537;28;20272;-67
2021/06/14 09:19:26;;;;;;;4.00;2.55;;;28.10;99.90;;;;;;20800360;28;20237;-64
2021/06/14 09:29:31;;;;;;;2.75;1.95;;;28.10;99.90;;;;;;20817947;28;20248;-64
2021/06/14 09:39:41;;;;;;;3.50;2.38;;;28.30;99.90;;;;;;20817810;28;20256;-67
2021/06/14 09:49:57;;;;;;;2.65;2.45;;;28.30;99.90;;;;;;20798986;28;20190;-65
2021/06/14 10:00:14;;;;;;;4.38;2.88;;;28.20;99.90;;;;;;20815433;28;20226;-66
2021/06/14 10:10:22;;;;;;;3.15;2.67;;;28.40;99.90;;;;;;20812417;28;20198;-65
2021/06/14 10:20:29;;;;;;;4.40;2.78;;;28.50;99.90;;;;;;20814548;28;20221;-64
2021/06/14 10:30:34;;;;;;;3.85;2.47;;;28.50;99.90;;;;;;20813219;28;20194;-65
2021/06/14 10:40:41;;;;;;;3.80;2.90;;;29.00;99.90;;;;;;20814444;28;20317;-64
2021/06/14 10:50:45;;;;;;;4.30;2.85;;;29.40;99.90;;;;;;20816777;28;20204;-62
2021/06/14 11:01:05;;;;;;;4.30;3.03;;;29.80;99.90;;;;;;20818974;28;20703;-63
2021/06/14 11:11:10;;;;;;;8.45;2.90;;;30.20;99.90;;;;;;20821833;28;20255;-64
2021/06/14 11:21:17;;;;;;;8.45;4.60;;;30.60;99.90;;;;;;20809375;28;20657;-68
2021/06/14 11:31:22;;;;;;;4.25;3.10;;;31.30;99.90;;;;;;20824779;28;20213;-68
2021/06/14 11:41:32;;;;;;;5.40;3.42;;;31.90;99.90;;;;;;20822901;28;20228;-66
2021/06/14 11:51:38;;;;;;;5.03;3.40;;;32.60;99.90;;;;;;20825240;28;20205;-66
2021/06/14 12:01:43;;;;;;;3.95;2.80;;;32.60;99.90;;;;;;20825030;28;20234;-68
2021/06/14 12:11:57;;;;;;;3.88;3.17;;;33.50;99.90;;;;;;20824269;28;20194;-68
2021/06/14 12:22:06;;;;;;;2.92;2.20;;;33.40;99.90;;;;;;20823622;28;20222;-67
2021/06/14 12:32:11;;;;;;;3.47;2.75;;;34.30;99.90;;;;;;20823481;28;20207;-68
2021/06/14 12:42:20;;;;;;;4.03;2.60;;;35.10;99.90;;;;;;20821425;28;20254;-66
2021/06/14 12:52:26;;;;;;;6.03;3.30;;;35.20;99.90;;;;;;20820214;28;20210;-66
2021/06/14 13:02:31;;;;;;;4.47;3.05;;;35.00;99.90;;;;;;20819502;28;20230;-67
2021/06/14 13:12:35;;;;;;;5.15;4.00;;;35.00;99.90;;;;;;20820033;28;20198;-65
2021/06/14 13:22:41;;;;;;;4.15;2.70;;;35.30;99.90;;;;;;20817892;28;20234;-63
2021/06/14 13:32:51;;;;;;;6.03;3.67;;;35.60;99.90;;;;;;20781366;28;20506;-65
2021/06/14 13:42:58;;;;;;;4.85;3.17;;;35.70;99.90;;;;;;20815626;28;20555;-69
2021/06/14 13:53:09;;;;;;;5.60;4.35;;;36.00;99.90;;;;;;20827811;28;20193;-63
2021/06/14 14:03:15;;;;;;;5.18;4.40;;;35.60;99.90;;;;;;20879975;28;20243;-63
2021/06/14 14:13:22;;;;;;;4.15;3.17;;;35.40;99.90;;;;;;20898602;28;20193;-63
2021/06/14 14:23:27;;;;;;;3.45;2.70;;;34.90;99.90;;;;;;20837518;28;20663;-64
2021/06/14 14:33:32;;;;;;;5.03;2.80;;;35.50;99.90;;;;;;20811117;28;20202;-66
2021/06/14 14:43:43;;;;;;;4.63;3.63;;;36.00;99.90;;;;;;20816647;28;20280;-65
2021/06/14 14:53:47;;;;;;;4.38;3.10;;;36.50;99.90;;;;;;20881032;28;20189;-64
2021/06/14 15:03:53;;;;;;;7.30;3.22;;;36.40;99.90;;;;;;20867583;28;20347;-64
2021/06/14 15:13:56;;;;;;;4.80;3.55;;;36.40;99.90;;;;;;20826642;28;20194;-67
2021/06/14 15:24:02;;;;;;;3.70;3.35;;;36.20;99.90;;;;;;20824878;28;20763;-66
2021/06/14 15:34:07;;;;;;;3.60;3.13;;;36.30;99.90;;;;;;20805772;28;20247;-65
2021/06/14 15:44:12;;;;;;;5.95;4.05;;;35.80;99.90;;;;;;20826964;28;20606;-66
2021/06/14 15:54:15;;;;;;;3.45;2.38;;;35.90;99.90;;;;;;20824313;28;20194;-65
2021/06/14 16:04:21;;;;;;;3.92;3.53;;;35.10;99.90;;;;;;20821661;28;20722;-64
2021/06/14 16:14:25;;;;;;;4.40;3.38;;;35.00;99.90;;;;;;20824909;28;20225;-62
2021/06/14 16:24:30;;;;;;;4.45;3.35;;;34.20;99.90;;;;;;20812363;28;20255;-64
2021/06/14 16:34:34;;;;;;;4.30;3.33;;;34.20;99.90;;;;;;20817370;28;20553;-64
2021/06/14 16:44:39;;;;;;;4.13;3.20;;;34.40;99.90;;;;;;20819316;28;20221;-64
2021/06/14 16:54:43;;;;;;;4.03;2.95;;;33.70;99.90;;;;;;20816058;28;20195;-63
2021/06/14 17:04:48;;;;;;;4.20;3.40;;;33.90;99.90;;;;;;20816423;28;20710;-65
2021/06/14 17:14:52;;;;;;;3.72;3.42;;;33.70;99.90;;;;;;20801935;28;20630;-65
2021/06/14 17:24:58;;;;;;;3.70;3.30;;;33.70;99.90;;;;;;20800902;28;20250;-64
2021/06/14 17:35:02;;;;;;;6.60;3.40;;;33.60;99.90;;;;;;20817286;28;20463;-65
2021/06/14 17:45:08;;;;;;;3.97;3.28;;;33.40;99.90;;;;;;20817728;28;20618;-65
2021/06/14 17:55:13;;;;;;;3.08;2.55;;;32.40;99.90;;;;;;20815713;28;20229;-66
2021/06/14 18:05:21;;;;;;;4.95;3.40;;;32.50;99.90;;;;;;20813626;28;20226;-63
2021/06/14 18:15:28;;;;;;;4.78;2.78;;;31.50;99.90;;;;;;20812393;28;20562;-63
2021/06/14 18:25:34;;;;;;;3.25;2.70;;;31.30;99.90;;;;;;20811766;28;20225;-65
2021/06/14 18:35:38;;;;;;;10.40;4.25;;;30.90;99.90;;;;;;20812084;28;20437;-65
2021/06/14 18:45:45;;;;;;;4.55;3.30;;;30.40;99.90;;;;;;20810210;28;20222;-65
2021/06/14 18:55:49;;;;;;;4.40;3.10;;;29.80;99.90;;;;;;20812811;28;20183;-64
2021/06/14 19:05:54;;;;;;;4.50;3.40;;;28.70;99.90;;;;;;20813834;28;20316;-64
2021/06/14 19:15:57;;;;;;;7.65;2.50;;;27.80;99.90;;;;;;20812223;28;20194;-63
2021/06/14 19:26:03;;;;;;;3.08;2.80;;;27.30;99.90;;;;;;20813202;28;20230;-63
2021/06/14 19:36:07;;;;;;;4.30;2.58;;;27.10;99.90;;;;;;20827518;28;20600;-65
2021/06/14 19:46:12;;;;;;;3.35;2.85;;;26.60;99.90;;;;;;20806454;28;20214;-64
2021/06/14 19:56:16;;;;;;;5.60;2.67;;;26.40;99.90;;;;;;20817920;28;20302;-66
2021/06/14 20:06:21;;;;;;;4.30;2.53;;;26.40;99.90;;;;;;20822875;28;20283;-62
2021/06/14 20:16:25;;;;;;;3.63;2.25;;;26.20;99.90;;;;;;20823123;28;20202;-65
2021/06/14 20:26:32;;;;;;;2.95;2.28;;;25.80;99.90;;;;;;20821168;28;20229;-64
2021/06/14 20:36:37;;;;;;;6.20;2.97;;;25.80;99.90;;;;;;20825301;28;20198;-64
2021/06/14 20:46:42;;;;;;;2.63;2.00;;;25.60;99.90;;;;;;20819812;28;20707;-65
2021/06/14 20:56:45;;;;;;;3.03;2.33;;;25.60;99.90;;;;;;20819249;28;20195;-65
2021/06/14 21:06:52;;;;;;;4.55;2.58;;;25.30;99.90;;;;;;20820934;28;20325;-64
2021/06/14 21:16:55;;;;;;;2.85;2.20;;;25.30;99.90;;;;;;20801994;28;20202;-64
2021/06/14 21:27:01;;;;;;;2.10;1.73;;;25.30;99.90;;;;;;20800849;28;20226;-67
2021/06/14 21:37:05;;;;;;;2.03;1.33;;;25.20;99.90;;;;;;20819431;28;20860;-65
2021/06/14 21:47:10;;;;;;;1.52;1.27;;;25.60;99.90;;;;;;20817877;28;20635;-66
2021/06/14 21:57:14;;;;;;;1.98;1.33;;;25.40;99.90;;;;;;20816905;28;20201;-65
2021/06/14 22:07:19;;;;;;;1.85;1.52;;;25.30;99.90;;;;;;20816730;28;20264;-64
2021/06/14 22:17:23;;;;;;;3.08;1.25;;;25.30;99.90;;;;;;20817004;28;20202;-66
2021/06/14 22:27:28;;;;;;;2.08;1.60;;;25.30;99.90;;;;;;20816873;28;20759;-65
2021/06/14 22:37:32;;;;;;;3.08;1.85;;;25.40;99.90;;;;;;20815527;28;20201;-65
2021/06/14 22:47:37;;;;;;;1.58;1.48;;;25.80;99.90;;;;;;20815247;28;20234;-64
2021/06/14 22:57:41;;;;;;;2.15;1.60;;;26.00;99.90;;;;;;20815214;28;20226;-63
2021/06/14 23:07:46;;;;;;;2.03;1.80;;;25.80;99.90;;;;;;20827253;28;20329;-64
2021/06/14 23:17:49;;;;;;;2.55;1.48;;;25.70;99.90;;;;;;20827483;28;20220;-64
2021/06/14 23:27:55;;;;;;;1.67;1.33;;;25.70;99.90;;;;;;20829032;28;20271;-66
2021/06/14 23:37:58;;;;;;;2.08;1.80;;;25.30;99.90;;;;;;20828862;28;20229;-66
2021/06/14 23:48:04;;;;;;;1.70;1.25;;;25.20;99.90;;;;;;20827935;28;20221;-66
2021/06/14 23:58:08;;;;;;;2.40;1.67;;;25.20;99.90;;;;;;20827373;28;20233;-65
